createdAt,value
2022-09-23T00:06:18.272Z,19.30
2022-09-23T00:16:26.685Z,19.40
2022-09-23T00:26:30.833Z,19.30
2022-09-23T00:36:35.844Z,19.30
2022-09-23T00:46:43.749Z,19.10
2022-09-23T00:56:49.164Z,19.10
2022-09-23T01:06:53.067Z,18.80
2022-09-23T01:17:03.840Z,18.60
2022-09-23T01:27:16.847Z,18.60
2022-09-23T01:37:28.801Z,18.50
2022-09-23T01:47:37.568Z,18.40
2022-09-23T01:57:45.928Z,18.40
2022-09-23T02:07:54.058Z,18.40
2022-09-23T02:18:03.938Z,18.30
2022-09-23T02:28:15.007Z,18.20
2022-09-23T02:38:26.721Z,18.20
2022-09-23T02:48:34.601Z,18.30
2022-09-23T02:58:39.915Z,18.00
2022-09-23T03:08:51.010Z,18.00
2022-09-23T03:19:05.575Z,18.00
2022-09-23T03:29:11.688Z,18.10
2022-09-23T03:39:27.816Z,18.20
2022-09-23T03:49:36.158Z,18.10
2022-09-23T03:59:41.749Z,18.10
2022-09-23T04:09:45.529Z,18.00
2022-09-23T04:19:50.705Z,18.00
2022-09-23T04:29:54.267Z,18.00
2022-09-23T04:39:59.289Z,18.10
2022-09-23T04:50:03.003Z,18.00
2022-09-23T05:00:09.684Z,18.00
2022-09-23T05:10:13.650Z,18.10
2022-09-23T05:20:19.390Z,18.10
2022-09-23T05:30:23.086Z,18.30
2022-09-23T05:40:28.279Z,18.10
2022-09-23T05:50:31.952Z,18.00
2022-09-23T06:00:37.034Z,18.20
2022-09-23T06:10:41.811Z,18.20
2022-09-23T06:20:46.959Z,18.40
2022-09-23T06:30:50.810Z,18.50
2022-09-23T06:40:57.748Z,18.80
2022-09-23T06:51:04.234Z,19.50
2022-09-23T07:01:11.111Z,19.80
2022-09-23T07:11:14.906Z,20.40
2022-09-23T07:21:21.920Z,20.80
2022-09-23T07:31:37.235Z,21.10
2022-09-23T07:41:44.793Z,21.70
2022-09-23T07:51:49.310Z,22.20
2022-09-23T08:01:54.947Z,22.60
2022-09-23T08:11:59.368Z,22.90
2022-09-23T08:22:04.365Z,23.10
2022-09-23T08:32:08.069Z,23.20
2022-09-23T08:42:23.508Z,23.30
2022-09-23T08:52:34.515Z,23.50
2022-09-23T09:02:39.550Z,23.70
2022-09-23T09:12:45.275Z,23.80
2022-09-23T09:22:56.157Z,24.00
2022-09-23T09:33:02.963Z,24.20
2022-09-23T09:43:08.902Z,24.60
2022-09-23T09:53:24.973Z,24.60
2022-09-23T10:03:38.833Z,24.90
2022-09-23T10:13:44.552Z,25.30
2022-09-23T10:23:52.897Z,25.50
2022-09-23T10:33:59.971Z,25.80
2022-09-23T10:44:37.898Z,26.20
2022-09-23T10:54:53.086Z,26.80
2022-09-23T11:05:41.281Z,27.50
2022-09-23T11:15:59.432Z,28.20
2022-09-23T11:26:11.872Z,28.00
2022-09-23T11:36:26.214Z,29.00
2022-09-23T11:46:35.978Z,29.60
2022-09-23T11:56:48.520Z,29.20
2022-09-23T12:06:58.251Z,27.40
2022-09-23T12:17:19.242Z,28.20
2022-09-23T12:27:32.105Z,27.40
2022-09-23T12:37:39.857Z,28.40
2022-09-23T12:47:43.602Z,28.80
2022-09-23T12:57:49.199Z,29.60
2022-09-23T13:07:52.850Z,29.80
2022-09-23T13:18:26.385Z,28.40
2022-09-23T13:28:35.044Z,29.20
2022-09-23T13:38:40.007Z,28.60
2022-09-23T13:48:46.688Z,28.20
2022-09-23T13:58:52.477Z,29.00
2022-09-23T14:08:56.850Z,29.60
2022-09-23T14:19:02.308Z,29.40
2022-09-23T14:29:07.491Z,28.30
2022-09-23T14:39:14.006Z,29.40
2022-09-23T14:49:19.193Z,29.90
2022-09-23T14:59:28.669Z,28.20
2022-09-23T15:09:34.557Z,27.30
2022-09-23T15:19:39.770Z,27.20
2022-09-23T15:29:47.072Z,27.30
2022-09-23T15:39:52.304Z,26.90
2022-09-23T15:49:55.995Z,26.90
2022-09-23T16:00:01.028Z,26.60
2022-09-23T16:10:04.784Z,26.30
2022-09-23T16:20:10.838Z,26.20
2022-09-23T16:30:14.644Z,26.20
2022-09-23T16:40:22.815Z,26.00
2022-09-23T16:50:26.555Z,25.90
2022-09-23T17:00:49.065Z,25.80
2022-09-23T17:10:58.517Z,25.60
2022-09-23T17:21:05.840Z,25.40
2022-09-23T17:31:09.626Z,25.10
2022-09-23T17:41:16.269Z,25.20
2022-09-23T17:51:20.355Z,24.90
2022-09-23T18:01:27.041Z,25.00
2022-09-23T18:11:33.249Z,24.80
2022-09-23T18:21:41.179Z,25.00
2022-09-23T18:31:45.597Z,24.90
2022-09-23T18:41:51.425Z,24.80
2022-09-23T18:51:56.439Z,24.70
2022-09-23T19:02:01.725Z,24.40
2022-09-23T19:12:05.808Z,24.10
2022-09-23T19:22:11.418Z,22.70
2022-09-23T19:32:16.558Z,22.50
2022-09-23T19:42:21.713Z,22.30
2022-09-23T19:52:25.497Z,22.20
2022-09-23T20:02:30.543Z,22.50
2022-09-23T20:12:34.717Z,22.80
2022-09-23T20:22:40.170Z,22.80
2022-09-23T20:32:44.880Z,22.70
2022-09-23T20:42:50.778Z,22.90
2022-09-23T20:52:54.433Z,23.00
2022-09-23T21:03:00.053Z,23.00
2022-09-23T21:13:07.081Z,23.20
2022-09-23T21:23:12.177Z,23.10
2022-09-23T21:33:18.596Z,22.90
2022-09-23T21:43:24.444Z,22.50
2022-09-23T21:53:30.059Z,21.90
2022-09-23T22:03:35.064Z,21.80
2022-09-23T22:13:38.728Z,21.80
2022-09-23T22:23:43.952Z,21.70
2022-09-23T22:33:50.776Z,21.70
2022-09-23T22:43:55.779Z,21.50
2022-09-23T22:53:59.599Z,21.40
2022-09-23T23:04:06.153Z,21.30
2022-09-23T23:14:10.303Z,21.30
2022-09-23T23:24:19.430Z,21.20
2022-09-23T23:34:23.706Z,21.10
2022-09-23T23:44:31.317Z,21.00
2022-09-23T23:54:34.989Z,20.00
